Time;durP1;ratioP1;P1;durP2;ratioP2;P2;SDS_P1;SDS_P2;PMS_P1;PMS_P2;Temp;Humidity;BMP_temperature;BMP_pressure;BME280_temperature;BME280_humidity;BME280_pressure;Samples;Min_cycle;Max_cycle;Signal;HPM_P1;HPM_P2
2022/06/19 00:00:39;;;;;;;15.43;3.42;;;;;;;17.28;70.37;100794.34;5047632;28;20382;-72
2022/06/19 00:03:09;;;;;;;11.50;2.10;;;;;;;17.28;70.23;100811.00;5047094;28;20054;-71
2022/06/19 00:05:34;;;;;;;10.98;3.28;;;;;;;17.17;71.17;100814.03;5042653;28;20045;-71
2022/06/19 00:07:59;;;;;;;11.88;2.75;;;;;;;17.17;71.03;100805.72;5024896;28;20512;-71
2022/06/19 00:10:24;;;;;;;11.18;2.67;;;;;;;17.18;70.60;100799.06;5016451;28;20021;-72
2022/06/19 00:12:50;;;;;;;10.82;2.65;;;;;;;17.17;69.67;100787.13;5026944;28;20033;-71
2022/06/19 00:15:16;;;;;;;13.07;2.63;;;;;;;17.19;69.17;100784.09;5029764;28;20040;-71
2022/06/19 00:17:42;;;;;;;12.77;2.35;;;;;;;17.04;69.66;100784.91;5037210;28;20144;-72
2022/06/19 00:20:10;;;;;;;12.98;2.63;;;;;;;17.17;68.92;100784.34;5025256;28;20080;-71
2022/06/19 00:22:36;;;;;;;11.05;2.35;;;;;;;17.00;69.51;100792.09;5026899;28;20052;-72
2022/06/19 00:25:03;;;;;;;12.60;2.88;;;;;;;16.83;71.03;100793.19;5026692;28;20534;-71
2022/06/19 00:27:28;;;;;;;10.95;2.60;;;;;;;16.77;70.88;100788.72;5025890;28;20029;-71
2022/06/19 00:29:54;;;;;;;8.82;2.50;;;;;;;16.84;71.52;100794.03;5043013;28;20032;-71
2022/06/19 00:32:20;;;;;;;11.77;3.13;;;;;;;16.80;70.49;100812.31;5044969;28;20037;-71
2022/06/19 00:34:45;;;;;;;11.32;2.30;;;;;;;16.84;70.00;100824.53;5039519;28;20498;-71
2022/06/19 00:37:11;;;;;;;10.75;2.83;;;;;;;16.80;69.83;100820.63;5006475;28;20112;-72
2022/06/19 00:39:39;;;;;;;14.05;2.97;;;;;;;16.83;69.30;100814.56;5026224;28;20061;-71
2022/06/19 00:42:05;;;;;;;;;;;;;;;17.04;67.98;100810.72;5026280;28;20075;-72
2022/06/19 00:44:31;;;;;;;11.15;2.65;;;;;;;16.68;66.55;100797.84;5026262;28;19913;-71
2022/06/19 00:47:15;;;;;;;11.90;2.78;;;;;;;16.54;67.64;100808.59;5025974;28;20032;-70
2022/06/19 00:49:55;;;;;;;12.23;2.42;;;;;;;16.46;67.60;100804.38;5025139;28;20025;-71
2022/06/19 00:52:23;;;;;;;13.23;2.78;;;;;;;16.46;67.21;100815.47;5024725;28;20063;-72
2022/06/19 00:54:58;;;;;;;14.40;2.90;;;;;;;16.34;68.08;100814.88;5018769;28;20603;-71
2022/06/19 00:57:26;;;;;;;10.48;2.50;;;;;;;16.31;66.78;100801.53;5017849;28;20121;-71
2022/06/19 00:59:59;;;;;;;12.05;3.20;;;;;;;16.22;66.72;100804.03;5006371;28;20050;-71
2022/06/19 01:02:25;;;;;;;15.32;2.90;;;;;;;16.22;67.07;100806.78;5014699;28;20055;-71
2022/06/19 01:04:53;;;;;;;13.25;2.67;;;;;;;16.19;66.61;100798.19;5024115;28;20425;-71
2022/06/19 01:07:21;;;;;;;13.07;2.40;;;;;;;16.30;65.51;100794.34;5025076;28;20045;-71
2022/06/19 01:09:47;;;;;;;14.50;2.47;;;;;;;16.22;65.21;100792.06;5014225;22;1047713;-71
2022/06/19 01:12:13;;;;;;;16.25;3.00;;;;;;;16.21;65.10;100798.72;5048520;28;20098;-70
2022/06/19 01:14:42;;;;;;;13.00;2.47;;;;;;;16.21;64.81;100798.72;5050753;28;20021;-71
2022/06/19 01:17:10;;;;;;;11.02;2.33;;;;;;;16.04;65.70;100837.72;5050872;28;20025;-71
2022/06/19 01:19:38;;;;;;;14.60;2.97;;;;;;;16.06;66.30;100911.13;5050843;28;20055;-70
2022/06/19 01:22:14;;;;;;;12.23;2.60;;;;;;;16.11;66.17;100984.31;5049614;28;20037;-70
2022/06/19 01:25:00;;;;;;;14.48;2.88;;;;;;;16.15;66.20;100941.97;5048411;28;20029;-70
2022/06/19 01:30:13;;;;;;;12.10;2.03;;;;;;;15.90;65.10;100887.19;5050945;28;20579;-71
2022/06/19 01:32:40;;;;;;;12.95;2.78;;;;;;;15.91;64.02;100930.41;5030548;28;20017;-71
2022/06/19 01:35:08;;;;;;;15.00;2.60;;;;;;;15.83;64.10;100920.66;5043723;28;20078;-70
2022/06/19 01:37:35;;;;;;;13.93;3.00;;;;;;;15.73;63.63;100875.44;5049431;28;20024;-71
2022/06/19 01:40:11;;;;;;;11.68;2.42;;;;;;;15.61;63.73;100861.72;5049377;28;20116;-70
2022/06/19 01:42:37;;;;;;;14.38;2.42;;;;;;;15.56;63.17;100905.97;5050213;28;20021;-71
2022/06/19 01:45:04;;;;;;;13.95;2.75;;;;;;;15.54;62.75;100925.63;5049716;28;20028;-70
2022/06/19 01:47:29;;;;;;;14.73;2.40;;;;;;;15.53;63.29;100912.88;5048449;28;20058;-71
2022/06/19 01:49:57;;;;;;;16.75;2.80;;;;;;;15.48;62.78;100917.53;5050843;28;20515;-71
2022/06/19 01:52:25;;;;;;;16.42;2.95;;;;;;;15.45;63.27;100926.34;5049984;28;20048;-71
2022/06/19 01:54:56;;;;;;;19.70;3.40;;;;;;;15.42;62.07;100911.09;5048001;28;20032;-71
2022/06/19 01:57:23;;;;;;;15.23;2.63;;;;;;;15.35;62.21;100899.41;5050195;28;20017;-68
2022/06/19 01:59:50;;;;;;;17.17;2.97;;;;;;;15.29;62.01;100917.06;5048684;28;20025;-71
2022/06/19 02:02:16;;;;;;;15.95;2.63;;;;;;;15.29;61.85;100920.66;5044106;28;20013;-71
2022/06/19 02:04:43;;;;;;;10.85;2.38;;;;;;;15.26;60.15;100925.88;5044703;28;20040;-71
2022/06/19 02:07:15;;;;;;;17.98;2.63;;;;;;;15.25;60.01;100922.25;5043509;28;20464;-71
2022/06/19 02:09:40;;;;;;;13.68;2.20;;;;;;;15.26;59.79;100923.97;5043590;28;20052;-72
2022/06/19 02:12:07;;;;;;;11.43;2.17;;;;;;;15.28;59.94;100920.91;5040892;28;20130;-71
2022/06/19 02:14:33;;;;;;;15.38;2.80;;;;;;;15.29;58.87;100928.13;5032581;28;20025;-70
2022/06/19 02:17:06;;;;;;;12.48;2.35;;;;;;;15.28;59.48;100931.97;5024695;28;20029;-71
2022/06/19 02:19:32;;;;;;;13.63;2.15;;;;;;;15.27;59.81;100908.19;5044407;28;20439;-71
2022/06/19 02:21:57;;;;;;;13.38;2.55;;;;;;;15.25;59.45;100915.88;5043122;28;20029;-72
2022/06/19 02:24:26;;;;;;;10.43;2.00;;;;;;;15.23;59.71;100923.63;5026120;28;20517;-71
2022/06/19 02:26:54;;;;;;;11.90;2.25;;;;;;;15.21;58.92;100920.31;5034523;28;20026;-71
2022/06/19 02:29:20;;;;;;;11.30;2.53;;;;;;;15.23;58.72;100912.56;5045970;28;20413;-71
2022/06/19 02:31:52;;;;;;;11.38;2.60;;;;;;;15.22;59.87;100922.78;5043232;28;20408;-70
2022/06/19 02:34:26;;;;;;;13.73;2.40;;;;;;;15.21;58.48;100929.44;5043425;28;20553;-71
2022/06/19 02:36:58;;;;;;;12.93;3.03;;;;;;;15.18;58.10;100927.16;5045179;28;20047;-71
2022/06/19 02:39:43;;;;;;;13.73;2.17;;;;;;;15.19;58.07;100939.06;5042613;28;20052;-71
2022/06/19 02:42:20;;;;;;;8.20;2.00;;;;;;;15.18;57.46;100931.88;5042146;28;20037;-71
2022/06/19 02:44:49;;;;;;;13.57;2.50;;;;;;;15.19;57.21;100939.91;5044193;28;20210;-71
2022/06/19 02:47:15;;;;;;;10.20;2.20;;;;;;;15.23;56.75;100940.22;5048677;28;20021;-71
2022/06/19 02:49:41;;;;;;;14.90;2.38;;;;;;;15.25;57.26;100916.72;5049461;28;20410;-71
2022/06/19 02:52:08;;;;;;;12.55;1.85;;;;;;;15.28;56.69;100923.69;5048049;28;20040;-72
2022/06/19 02:54:34;;;;;;;16.10;2.03;;;;;;;15.28;58.01;100910.69;5048077;28;20397;-71
2022/06/19 02:57:00;;;;;;;11.70;2.03;;;;;;;15.24;57.08;100917.81;5046067;28;20025;-72
2022/06/19 02:59:25;;;;;;;8.70;1.70;;;;;;;15.26;57.49;100928.66;5048703;28;20083;-71
2022/06/19 03:01:50;;;;;;;12.00;2.08;;;;;;;15.20;57.84;100974.78;5047115;28;20025;-71
2022/06/19 03:04:34;;;;;;;11.65;2.08;;;;;;;15.25;58.19;101043.19;5048346;28;20029;-71
2022/06/19 03:06:59;;;;;;;12.50;2.35;;;;;;;15.20;56.69;101056.94;5048640;28;20064;-71
2022/06/19 03:09:25;;;;;;;11.77;3.03;;;;;;;15.14;58.03;101016.47;5045229;28;20037;-70
2022/06/19 03:11:50;;;;;;;11.32;1.92;;;;;;;15.15;57.78;100993.25;5045334;28;20032;-71
2022/06/19 03:14:16;;;;;;;10.68;2.10;;;;;;;15.08;57.16;100959.41;5047872;28;20342;-71
2022/06/19 03:16:41;;;;;;;11.57;2.20;;;;;;;15.03;56.59;100961.03;5044176;28;20500;-71
2022/06/19 03:19:07;;;;;;;12.48;2.10;;;;;;;15.01;57.88;100960.44;5047221;28;20039;-72
2022/06/19 03:21:32;;;;;;;8.85;1.98;;;;;;;14.95;56.95;100950.44;5047666;28;20108;-72
2022/06/19 03:23:58;;;;;;;9.00;2.13;;;;;;;14.96;56.83;100926.38;5048168;28;20021;-72
2022/06/19 03:26:23;;;;;;;9.15;1.90;;;;;;;14.89;55.88;100911.88;5045281;28;20083;-71
2022/06/19 03:28:49;;;;;;;10.25;1.63;;;;;;;14.86;56.12;100918.78;5047932;28;20503;-71
2022/06/19 03:31:18;;;;;;;10.00;2.05;;;;;;;14.85;56.45;100938.38;5045627;28;20397;-71
2022/06/19 03:33:44;;;;;;;12.80;1.67;;;;;;;14.85;56.12;100955.81;5047799;28;20021;-72
2022/06/19 03:36:10;;;;;;;9.57;2.05;;;;;;;14.82;55.84;100955.50;5047626;28;20427;-72
2022/06/19 03:38:35;;;;;;;14.15;1.75;;;;;;;14.81;55.50;100927.00;5043610;28;20099;-70
2022/06/19 03:41:00;;;;;;;6.28;1.42;;;;;;;14.79;56.59;100907.88;5041046;28;20021;-72
2022/06/19 03:43:26;;;;;;;7.30;1.70;;;;;;;14.81;55.72;100885.53;5045665;28;20047;-71
2022/06/19 03:45:58;;;;;;;11.13;1.83;;;;;;;14.77;55.69;100887.13;5047552;28;20033;-74
2022/06/19 03:48:23;;;;;;;12.07;1.98;;;;;;;14.87;54.32;100873.44;5047452;28;20024;-72
2022/06/19 03:50:50;;;;;;;9.82;1.60;;;;;;;14.82;54.00;100842.97;5047284;28;20021;-71
2022/06/19 03:53:16;;;;;;;7.93;1.63;;;;;;;14.68;56.82;100888.69;5046562;28;20119;-72
2022/06/19 03:55:41;;;;;;;9.85;1.70;;;;;;;14.67;55.46;100947.81;5045140;28;20112;-72
2022/06/19 03:58:06;;;;;;;10.40;1.55;;;;;;;14.70;54.89;100988.75;5046213;28;20327;-72
2022/06/19 04:00:32;;;;;;;15.48;2.70;;;;;;;14.69;53.71;100976.03;5045917;28;20033;-71
2022/06/19 04:02:58;;;;;;;12.02;2.10;;;;;;;14.72;53.96;100937.66;5047036;28;20484;-71
2022/06/19 04:05:23;;;;;;;11.93;1.70;;;;;;;14.74;53.65;100954.00;5047634;28;20445;-72
2022/06/19 04:07:50;;;;;;;7.72;1.75;;;;;;;14.73;53.77;100911.69;5046781;28;20049;-71
2022/06/19 04:10:18;;;;;;;7.60;1.35;;;;;;;15.17;52.13;100870.19;5046052;28;20447;-72
2022/06/19 04:12:43;;;;;;;9.35;1.77;;;;;;;15.09;52.34;100873.41;5046119;28;20029;-72
2022/06/19 04:15:10;;;;;;;9.35;1.95;;;;;;;14.71;54.38;100866.06;5047018;28;20027;-73
2022/06/19 04:17:36;;;;;;;8.63;1.20;;;;;;;14.97;53.36;100834.84;5042426;28;20017;-72
2022/06/19 04:20:03;;;;;;;9.77;1.70;;;;;;;15.12;53.58;100819.50;5045424;28;20050;-72
2022/06/19 04:22:29;;;;;;;11.30;2.13;;;;;;;15.03;54.13;100785.94;5046664;28;20665;-72
2022/06/19 04:24:54;;;;;;;14.68;1.70;;;;;;;14.77;55.67;100765.47;5046082;28;20055;-71
2022/06/19 04:27:19;;;;;;;12.65;1.60;;;;;;;14.66;57.17;100750.72;5046511;28;20021;-72
2022/06/19 04:29:45;;;;;;;13.38;2.17;;;;;;;14.70;56.87;100738.06;5045640;28;20032;-71
2022/06/19 04:32:10;;;;;;;10.98;2.47;;;;;;;14.37;58.91;100735.44;5043739;28;20025;-72
2022/06/19 04:34:35;;;;;;;11.07;2.17;;;;;;;14.52;58.85;100733.72;5044742;28;20033;-73
2022/06/19 04:37:00;;;;;;;10.13;1.75;;;;;;;14.62;57.58;100737.69;5046600;28;20106;-72
2022/06/19 04:39:26;;;;;;;9.23;1.55;;;;;;;14.76;57.34;100739.78;5045618;28;20036;-72
2022/06/19 04:41:51;;;;;;;15.57;2.42;;;;;;;14.59;59.19;100749.25;5045081;28;20482;-68
2022/06/19 04:44:17;;;;;;;9.27;1.65;;;;;;;14.67;59.01;100732.22;5047077;28;20570;-73
2022/06/19 04:46:44;;;;;;;15.25;2.20;;;;;;;14.52;60.37;100743.94;5045665;28;20036;-73
2022/06/19 04:49:11;;;;;;;14.88;2.20;;;;;;;14.58;59.47;100740.13;5038820;28;20053;-73
2022/06/19 04:51:36;;;;;;;15.98;2.35;;;;;;;14.62;60.13;100745.97;5042605;28;20178;-73
2022/06/19 04:54:02;;;;;;;15.80;2.42;;;;;;;14.57;60.31;100721.03;5044499;28;20104;-72
2022/06/19 04:56:28;;;;;;;17.60;3.20;;;;;;;14.52;60.67;100677.59;5046039;28;20933;-72
2022/06/19 04:58:53;;;;;;;15.77;2.28;;;;;;;14.61;60.20;100664.16;5046327;28;20017;-73
2022/06/19 05:01:30;;;;;;;14.95;2.42;;;;;;;14.86;59.40;100691.19;5045044;28;20051;-73
2022/06/19 05:03:58;;;;;;;16.45;2.33;;;;;;;14.69;60.49;100700.44;5030460;28;20034;-73
2022/06/19 05:06:24;;;;;;;10.83;1.90;;;;;;;14.74;59.88;100730.88;5037348;28;20017;-73
2022/06/19 05:08:49;;;;;;;23.05;3.15;;;;;;;14.72;60.94;100737.78;5045789;28;20032;-73
2022/06/19 05:11:16;;;;;;;16.25;2.85;;;;;;;14.79;60.63;100749.47;5043434;28;20456;-73
2022/06/19 05:13:41;;;;;;;14.75;2.63;;;;;;;14.84;60.32;100741.22;5044790;28;20463;-73
2022/06/19 05:16:13;;;;;;;17.02;2.75;;;;;;;14.94;60.64;100740.47;5044535;28;20021;-72
2022/06/19 05:18:39;;;;;;;18.48;2.90;;;;;;;14.88;60.19;100753.44;5043182;28;20477;-73
2022/06/19 05:21:05;;;;;;;16.65;2.95;;;;;;;14.92;60.01;100776.69;5045060;28;20052;-73
2022/06/19 05:23:32;;;;;;;16.02;2.72;;;;;;;14.98;59.69;100817.13;5044633;28;20025;-73
2022/06/19 05:26:07;;;;;;;14.88;2.83;;;;;;;15.15;58.58;100805.13;5044804;28;20706;-74
2022/06/19 05:28:33;;;;;;;17.30;2.75;;;;;;;15.13;60.13;100802.63;5044522;28;20491;-73
2022/06/19 05:30:59;;;;;;;16.77;2.40;;;;;;;15.23;58.27;100802.72;5044647;28;20037;-73
2022/06/19 05:33:27;;;;;;;15.35;2.25;;;;;;;15.24;59.08;100837.59;5043407;28;20409;-73
2022/06/19 05:35:52;;;;;;;11.25;2.63;;;;;;;15.34;61.18;100875.59;5046038;28;20100;-73
2022/06/19 05:38:18;;;;;;;20.40;3.05;;;;;;;15.42;62.36;100885.38;5040002;28;20121;-72
2022/06/19 05:40:43;;;;;;;20.00;2.70;;;;;;;15.55;60.48;100896.81;5031423;28;20064;-72
2022/06/19 05:43:09;;;;;;;16.85;3.08;;;;;;;15.65;60.20;100909.13;5042389;28;20029;-72
2022/06/19 05:45:34;;;;;;;18.77;2.97;;;;;;;15.86;58.91;100915.69;5045032;28;20096;-72
2022/06/19 05:47:59;;;;;;;20.50;2.88;;;;;;;16.05;58.62;100903.09;5044058;28;20057;-72
2022/06/19 05:50:25;;;;;;;20.17;2.42;;;;;;;16.31;58.02;100888.31;5045730;28;20203;-71
2022/06/19 05:52:50;;;;;;;13.65;1.88;;;;;;;16.48;58.76;100899.22;5043042;28;20057;-72
2022/06/19 05:55:15;;;;;;;12.55;2.40;;;;;;;16.60;59.31;100902.59;5043810;28;20114;-71
2022/06/19 05:57:41;;;;;;;14.95;2.58;;;;;;;16.61;58.06;100912.59;5044727;28;20037;-72
2022/06/19 06:00:08;;;;;;;15.75;3.30;;;;;;;16.61;57.42;100918.13;5045203;28;20549;-71
2022/06/19 06:02:35;;;;;;;14.85;2.38;;;;;;;16.59;60.28;100898.19;5042867;28;20029;-72
2022/06/19 06:05:00;;;;;;;16.60;2.65;;;;;;;16.57;59.25;100924.47;5042277;28;20584;-72
2022/06/19 06:07:26;;;;;;;16.13;2.40;;;;;;;16.54;59.51;100947.22;5045426;28;20017;-72
2022/06/19 06:09:51;;;;;;;19.90;3.13;;;;;;;16.44;57.70;100961.03;5040604;28;20091;-72
2022/06/19 06:12:16;;;;;;;19.27;2.60;;;;;;;16.47;58.69;100980.72;5044473;28;20035;-71
2022/06/19 06:14:42;;;;;;;17.73;2.72;;;;;;;16.47;59.47;100975.16;5043450;28;20070;-72
2022/06/19 06:17:08;;;;;;;13.60;2.80;;;;;;;16.40;59.55;100968.19;5043557;28;20629;-72
2022/06/19 06:19:34;;;;;;;11.55;2.30;;;;;;;16.39;60.04;100980.38;5042313;28;20124;-72
2022/06/19 06:22:02;;;;;;;14.85;2.50;;;;;;;16.40;61.14;100971.78;5044688;28;20516;-72
2022/06/19 06:24:27;;;;;;;14.95;2.50;;;;;;;16.47;60.12;100985.41;5043536;28;20052;-72
2022/06/19 06:26:53;;;;;;;16.65;2.90;;;;;;;16.51;59.60;101036.47;5043583;28;20044;-73
2022/06/19 06:29:20;;;;;;;13.85;2.75;;;;;;;16.48;59.27;101053.66;5045114;28;20031;-72
2022/06/19 06:31:46;;;;;;;19.13;2.75;;;;;;;16.39;58.43;101061.63;5044780;28;20515;-71
2022/06/19 06:34:11;;;;;;;16.08;3.25;;;;;;;16.29;59.28;101092.84;5043686;28;20037;-72
2022/06/19 06:36:36;;;;;;;14.23;2.33;;;;;;;16.23;59.89;101081.97;5044330;28;20033;-72
2022/06/19 06:39:02;;;;;;;16.83;2.50;;;;;;;16.18;60.34;101090.25;5035149;28;20036;-73
2022/06/19 06:41:27;;;;;;;14.80;2.92;;;;;;;16.11;58.64;101106.22;5043628;28;20032;-72
2022/06/19 06:43:53;;;;;;;13.23;2.35;;;;;;;16.06;57.23;101157.72;5043421;28;20013;-72
2022/06/19 06:46:21;;;;;;;12.77;2.42;;;;;;;16.00;58.84;101203.09;5045945;28;20039;-72
2022/06/19 06:48:46;;;;;;;;;;;;;;;16.08;59.98;101191.56;5043074;28;20098;-72
2022/06/19 06:51:15;;;;;;;12.80;2.42;;;;;;;15.86;61.39;101187.13;5041229;28;19921;-73
2022/06/19 06:53:41;;;;;;;12.65;2.13;;;;;;;15.78;62.90;101202.25;5042252;28;20113;-73
2022/06/19 06:56:07;;;;;;;11.63;2.53;;;;;;;15.76;65.54;101196.13;5041504;28;20108;-73
2022/06/19 06:58:33;;;;;;;10.77;1.80;;;;;;;15.64;59.99;101193.47;5043955;28;20391;-73
2022/06/19 07:01:09;;;;;;;12.40;2.47;;;;;;;15.50;62.68;101205.97;5033940;28;20029;-73
2022/06/19 07:03:34;;;;;;;10.43;1.90;;;;;;;15.35;63.89;101183.63;5024569;28;20116;-74
2022/06/19 07:05:59;;;;;;;12.88;2.10;;;;;;;15.29;67.66;101193.78;5041586;28;20101;-72
2022/06/19 07:08:25;;;;;;;13.30;2.45;;;;;;;15.19;66.59;101182.56;5041729;28;20575;-74
2022/06/19 07:10:50;;;;;;;12.45;2.60;;;;;;;15.13;67.18;101165.03;5044076;28;20060;-73
2022/06/19 07:13:15;;;;;;;13.00;3.00;;;;;;;15.15;68.01;101187.75;5044304;28;20032;-73
2022/06/19 07:15:41;;;;;;;12.18;2.25;;;;;;;15.13;69.08;101178.03;5041835;28;20450;-72
2022/06/19 07:18:06;;;;;;;12.57;2.00;;;;;;;15.07;69.65;101196.47;5040584;28;20444;-75
2022/06/19 07:20:31;;;;;;;15.18;2.78;;;;;;;15.02;68.89;101194.47;5036154;28;20037;-70
2022/06/19 07:22:56;;;;;;;16.85;2.50;;;;;;;15.01;70.07;101203.03;5024512;28;20017;-70
2022/06/19 07:25:22;;;;;;;13.00;3.67;;;;;;;14.98;70.13;101218.19;5038200;28;20029;-70
2022/06/19 07:27:48;;;;;;;13.30;2.55;;;;;;;14.94;70.94;101252.97;5043868;28;20029;-70
2022/06/19 07:30:17;;;;;;;16.27;2.67;;;;;;;14.88;71.90;101253.97;5043246;28;20025;-69
2022/06/19 07:32:42;;;;;;;16.55;2.58;;;;;;;14.83;72.18;101226.22;5046418;28;20040;-70
2022/06/19 07:35:08;;;;;;;24.92;3.05;;;;;;;14.79;74.43;101194.63;5046812;28;20028;-70
2022/06/19 07:37:33;;;;;;;16.33;3.00;;;;;;;14.71;75.66;101150.81;5045930;28;20025;-70
2022/06/19 07:39:58;;;;;;;17.48;4.43;;;;;;;14.60;75.75;101132.34;5047849;28;20035;-70
2022/06/19 07:42:23;;;;;;;13.27;3.15;;;;;;;14.56;78.40;101115.47;5046908;28;20025;-71
2022/06/19 07:44:49;;;;;;;17.08;3.08;;;;;;;14.53;78.22;101074.47;5047222;28;20033;-71
2022/06/19 07:50:15;;;;;;;15.25;4.18;;;;;;;14.43;78.47;101039.19;5002463;28;20056;-72
2022/06/19 07:52:43;;;;;;;19.77;3.83;;;;;;;14.34;79.15;101032.41;5027260;28;20490;-72
2022/06/19 07:55:11;;;;;;;16.50;3.25;;;;;;;14.33;79.62;101035.44;5026744;28;20029;-71
2022/06/19 07:57:37;;;;;;;20.08;3.80;;;;;;;14.39;79.42;101020.59;5026027;28;20082;-71
2022/06/19 08:00:17;;;;;;;23.38;4.05;;;;;;;14.38;80.50;101022.53;5040107;28;20461;-72
2022/06/19 08:02:48;;;;;;;19.15;3.78;;;;;;;14.46;81.71;101057.22;5041058;28;20029;-72
2022/06/19 08:05:14;;;;;;;17.88;4.25;;;;;;;14.47;80.87;101131.59;5044953;28;20492;-71
2022/06/19 08:07:40;;;;;;;16.45;3.40;;;;;;;14.39;80.06;101167.91;5040482;28;20108;-72
2022/06/19 08:10:08;;;;;;;18.67;3.90;;;;;;;14.42;81.75;101156.34;5045330;28;20045;-72
2022/06/19 08:12:33;;;;;;;22.93;4.50;;;;;;;14.51;82.12;101143.00;5042875;28;20029;-71
2022/06/19 08:14:58;;;;;;;23.05;3.90;;;;;;;14.57;83.32;101119.06;5045902;28;20020;-71
2022/06/19 08:17:23;;;;;;;21.40;4.63;;;;;;;14.62;83.71;101105.31;5043439;28;20041;-72
2022/06/19 08:19:49;;;;;;;25.35;5.00;;;;;;;14.72;84.87;101113.78;5044154;28;20025;-72
2022/06/19 08:22:14;;;;;;;22.85;4.38;;;;;;;14.75;86.22;101110.50;5034033;28;20377;-72
2022/06/19 08:24:39;;;;;;;20.73;3.92;;;;;;;14.73;85.72;101088.63;5045263;28;20041;-72
2022/06/19 08:27:05;;;;;;;18.35;4.13;;;;;;;14.75;85.45;101124.31;5044658;28;20075;-71
2022/06/19 08:29:31;;;;;;;24.40;5.22;;;;;;;14.76;84.09;101153.66;5043904;28;20059;-71
2022/06/19 08:31:56;;;;;;;25.38;5.38;;;;;;;14.85;87.14;101134.69;5046668;28;20420;-70
2022/06/19 08:34:21;;;;;;;20.55;5.03;;;;;;;14.98;86.74;101096.47;5039096;28;20036;-68
2022/06/19 08:36:47;;;;;;;22.45;5.07;;;;;;;15.22;88.15;101087.97;5046234;28;20079;-70
2022/06/19 08:39:15;;;;;;;23.20;5.43;;;;;;;15.49;88.57;101093.59;5026556;28;20079;-71
2022/06/19 08:42:04;;;;;;;31.98;6.43;;;;;;;15.84;85.08;101090.44;5027322;28;20575;-70
2022/06/19 08:44:46;;;;;;;20.75;5.30;;;;;;;15.86;85.66;101074.38;5025069;28;20018;-71
2022/06/19 08:47:20;;;;;;;22.02;5.70;;;;;;;15.75;85.40;101053.22;5027060;28;20373;-71
2022/06/19 08:50:08;;;;;;;26.95;6.82;;;;;;;15.63;86.58;101058.91;5033942;28;20426;-71
2022/06/19 08:53:15;;;;;;;27.02;5.82;;;;;;;15.51;84.10;101006.44;5027289;28;20025;-70
2022/06/19 08:55:51;;;;;;;23.60;5.35;;;;;;;15.28;84.86;101015.00;5026198;28;20063;-70
2022/06/19 08:58:17;;;;;;;25.90;6.60;;;;;;;15.37;85.74;101018.16;5027814;28;20034;-70
2022/06/19 09:01:37;;;;;;;22.03;4.90;;;;;;;15.44;81.47;100994.72;5026975;28;20040;-70
2022/06/19 09:07:32;;;;;;;24.27;5.80;;;;;;;15.92;80.79;100984.72;5044192;28;20039;-71
2022/06/19 09:10:20;;;;;;;18.20;4.88;;;;;;;16.19;79.99;101001.31;5041333;28;20037;-71
2022/06/19 09:13:14;;;;;;;17.70;5.55;;;;;;;16.49;79.68;101022.88;5044850;28;20041;-70
2022/06/19 09:15:47;;;;;;;25.75;6.70;;;;;;;16.91;76.52;101019.28;5026558;28;20100;-71
2022/06/19 09:18:26;;;;;;;20.65;5.30;;;;;;;17.20;77.96;101014.19;5026053;28;20032;-70
2022/06/19 09:21:33;;;;;;;19.25;5.38;;;;;;;17.63;75.43;101048.19;5044372;28;20025;-70
2022/06/19 09:24:04;;;;;;;18.80;5.13;;;;;;;18.16;75.50;101079.50;4982753;28;20081;-70
2022/06/19 09:26:46;;;;;;;14.50;4.15;;;;;;;18.01;70.18;101107.25;4982349;28;20030;-70
2022/06/19 09:29:19;;;;;;;16.33;4.25;;;;;;;17.80;72.87;101117.47;5009245;28;20057;-70
2022/06/19 09:31:53;;;;;;;16.88;4.07;;;;;;;17.61;73.47;101120.69;5034350;28;20028;-70
2022/06/19 09:34:47;;;;;;;18.63;3.83;;;;;;;17.56;72.61;101125.41;5042180;28;20162;-70
2022/06/19 09:37:30;;;;;;;14.73;3.60;;;;;;;17.48;71.66;101129.50;5023125;28;20048;-70
2022/06/19 09:40:20;;;;;;;10.50;2.90;;;;;;;17.47;72.29;101130.63;5026737;28;20030;-70
2022/06/19 09:42:54;;;;;;;13.13;2.80;;;;;;;17.48;71.49;101115.63;5025272;28;20024;-71
2022/06/19 09:45:22;;;;;;;10.40;2.38;;;;;;;17.61;68.58;101115.16;5024441;28;20042;-70
2022/06/19 09:47:57;;;;;;;10.30;2.58;;;;;;;17.91;66.29;101096.13;5024515;28;20040;-70
2022/06/19 09:50:31;;;;;;;9.60;2.80;;;;;;;18.44;66.26;101085.63;5033090;28;20065;-71
2022/06/19 09:53:06;;;;;;;10.43;2.25;;;;;;;19.36;64.03;101066.84;5039645;28;20422;-70
2022/06/19 09:55:55;;;;;;;12.63;2.85;;;;;;;19.74;60.99;101050.56;5042169;28;20382;-70
2022/06/19 09:58:31;;;;;;;10.85;2.05;;;;;;;20.73;55.08;101040.06;5045469;28;20044;-71
2022/06/19 10:00:57;;;;;;;7.30;1.98;;;;;;;21.00;52.58;101042.31;5044157;28;20029;-71
2022/06/19 10:03:40;;;;;;;14.35;2.10;;;;;;;20.99;52.79;101038.69;5043084;28;20048;-70
2022/06/19 10:06:14;;;;;;;9.30;2.25;;;;;;;20.51;55.21;101037.78;5027313;28;20025;-69
2022/06/19 10:08:53;;;;;;;7.85;1.90;;;;;;;20.20;56.42;101020.44;5026037;28;20041;-70
2022/06/19 10:11:23;;;;;;;7.65;1.70;;;;;;;20.32;57.02;101025.63;5036974;28;20044;-73
2022/06/19 10:14:00;;;;;;;12.23;2.30;;;;;;;21.43;58.24;101020.03;5045679;28;20059;-73
2022/06/19 10:16:45;;;;;;;11.17;2.27;;;;;;;23.07;53.26;101018.28;5044822;28;20108;-73
2022/06/19 10:19:14;;;;;;;7.47;1.83;;;;;;;23.56;47.79;101009.09;5044696;28;20033;-71
2022/06/19 10:22:15;;;;;;;9.60;2.38;;;;;;;23.27;47.78;100995.44;5042844;28;20056;-70
2022/06/19 10:25:06;;;;;;;9.60;1.77;;;;;;;22.65;50.37;100994.94;5043517;28;20017;-71
2022/06/19 10:27:38;;;;;;;8.30;1.80;;;;;;;23.11;48.31;100994.91;5035601;28;20033;-71
2022/06/19 10:30:18;;;;;;;11.38;1.88;;;;;;;23.88;47.41;100985.69;5044096;28;20033;-71
2022/06/19 10:33:04;;;;;;;7.35;2.10;;;;;;;24.30;45.65;100984.34;5044784;28;20121;-71
2022/06/19 10:35:49;;;;;;;8.20;1.83;;;;;;;24.11;47.12;100985.69;5044917;28;20041;-72
2022/06/19 10:38:43;;;;;;;7.82;1.90;;;;;;;24.18;46.93;100981.31;5042842;28;20436;-72
2022/06/19 10:44:26;;;;;;;6.93;1.70;;;;;;;23.83;42.83;101010.22;5043616;28;20043;-71
2022/06/19 10:47:07;;;;;;;5.15;1.48;;;;;;;22.78;46.34;101000.56;5044350;28;20133;-71
2022/06/19 10:49:41;;;;;;;6.35;1.70;;;;;;;22.22;48.35;100992.34;5042908;28;20132;-72
2022/06/19 10:52:20;;;;;;;6.18;1.55;;;;;;;22.18;50.31;100991.28;5032669;28;20037;-71
2022/06/19 10:54:48;;;;;;;7.07;2.08;;;;;;;22.20;51.82;100991.81;5043616;28;20021;-71
2022/06/19 10:57:44;;;;;;;6.97;1.70;;;;;;;22.37;51.80;101008.88;5037919;28;20057;-71
2022/06/19 11:00:10;;;;;;;7.78;1.77;;;;;;;22.06;51.14;101021.69;5029136;28;20807;-71
2022/06/19 11:05:48;;;;;;;8.23;1.73;;;;;;;21.44;51.67;101024.50;5044350;28;20505;-71
2022/06/19 11:08:15;;;;;;;7.00;1.95;;;;;;;21.25;52.45;101053.22;5048641;28;20040;-72
2022/06/19 11:10:48;;;;;;;5.13;1.50;;;;;;;20.99;53.11;101065.81;5044352;28;20611;-71
2022/06/19 11:13:13;;;;;;;8.77;1.63;;;;;;;21.04;54.44;101050.94;5045490;28;20063;-71
2022/06/19 11:16:01;;;;;;;6.95;2.03;;;;;;;21.13;51.89;101049.97;5047680;28;20143;-71
2022/06/19 11:18:26;;;;;;;6.97;1.60;;;;;;;21.23;54.30;101058.25;5046186;28;20350;-71
2022/06/19 11:20:58;;;;;;;8.38;2.17;;;;;;;21.23;52.51;101061.03;5046255;28;20047;-72
2022/06/19 11:23:37;;;;;;;5.63;1.58;;;;;;;21.57;52.06;101065.69;5048560;28;20044;-71
2022/06/19 11:26:13;;;;;;;6.60;1.70;;;;;;;21.55;50.62;101070.75;5044774;28;20040;-70
2022/06/19 11:28:54;;;;;;;8.73;2.00;;;;;;;21.54;50.18;101083.06;5048415;28;20119;-71
2022/06/19 11:31:59;;;;;;;7.80;2.00;;;;;;;21.69;53.24;101098.78;5048947;28;20408;-71
2022/06/19 11:34:43;;;;;;;8.15;1.90;;;;;;;21.52;49.36;101090.09;5036779;28;20043;-72
2022/06/19 11:37:22;;;;;;;5.93;1.80;;;;;;;21.65;52.79;101092.16;5048161;28;20025;-71
2022/06/19 11:39:52;;;;;;;6.75;1.95;;;;;;;22.01;52.09;101098.09;5043583;28;20037;-72
2022/06/19 11:42:40;;;;;;;6.63;1.90;;;;;;;22.22;52.68;101099.50;5028077;28;20025;-71
2022/06/19 11:45:14;;;;;;;10.63;2.30;;;;;;;22.33;50.34;101099.34;5038335;28;20040;-70
2022/06/19 11:47:47;;;;;;;8.18;2.30;;;;;;;22.12;51.63;101098.81;5047532;28;20020;-71